createdAt,value
2022-10-21T00:00:12.614Z,83.54
2022-10-21T00:02:40.795Z,84.20
2022-10-21T00:05:09.311Z,85.14
2022-10-21T00:07:38.644Z,85.84
2022-10-21T00:10:07.691Z,85.91
2022-10-21T00:12:36.100Z,85.86
2022-10-21T00:15:05.165Z,85.97
2022-10-21T00:17:35.415Z,85.53
2022-10-21T00:20:03.470Z,86.67
2022-10-21T00:22:31.984Z,86.89
2022-10-21T00:25:01.528Z,87.08
2022-10-21T00:27:29.533Z,87.39
2022-10-21T00:29:57.603Z,87.16
2022-10-21T00:32:25.520Z,87.50
2022-10-21T00:34:53.392Z,87.39
2022-10-21T00:37:21.354Z,87.07
2022-10-21T00:39:49.259Z,87.70
2022-10-21T00:42:20.514Z,88.20
2022-10-21T00:45:03.324Z,87.88
2022-10-21T00:47:31.960Z,87.87
2022-10-21T00:50:01.364Z,88.28
2022-10-21T00:52:31.003Z,88.22
2022-10-21T00:55:01.965Z,88.32
2022-10-21T00:57:32.698Z,88.25
2022-10-21T01:00:01.875Z,88.60
2022-10-21T01:02:30.287Z,88.92
2022-10-21T01:05:00.129Z,89.83
2022-10-21T01:07:28.193Z,90.80
2022-10-21T01:09:56.092Z,91.66
2022-10-21T01:12:28.733Z,92.08
2022-10-21T01:17:44.548Z,93.22
2022-10-21T01:20:38.315Z,93.86
2022-10-21T01:23:17.006Z,93.76
2022-10-21T01:25:58.479Z,93.97
2022-10-21T01:28:35.528Z,94.47
2022-10-21T01:31:10.559Z,94.54
2022-10-21T01:33:43.431Z,94.72
2022-10-21T01:36:16.847Z,94.98
2022-10-21T01:38:46.948Z,95.06
2022-10-21T01:41:16.854Z,95.28
2022-10-21T01:43:49.019Z,95.23
2022-10-21T01:46:24.235Z,95.46
2022-10-21T01:48:55.724Z,95.61
2022-10-21T01:54:02.403Z,95.59
2022-10-21T01:56:31.041Z,95.92
2022-10-21T01:58:59.616Z,96.02
2022-10-21T02:01:29.236Z,95.83
2022-10-21T02:03:59.996Z,96.09
2022-10-21T02:06:28.190Z,96.51
2022-10-21T02:08:56.612Z,96.54
2022-10-21T02:11:24.757Z,96.59
2022-10-21T02:13:57.295Z,96.58
2022-10-21T02:16:27.689Z,96.93
2022-10-21T02:18:57.569Z,97.10
2022-10-21T02:21:26.921Z,97.14
2022-10-21T02:23:56.495Z,97.25
2022-10-21T02:26:25.328Z,97.38
2022-10-21T02:28:54.253Z,97.05
2022-10-21T02:31:33.644Z,97.25
2022-10-21T02:34:08.813Z,97.26
2022-10-21T02:36:41.792Z,97.48
2022-10-21T02:39:14.743Z,97.56
2022-10-21T02:41:43.750Z,97.64
2022-10-21T02:44:11.767Z,98.01
2022-10-21T02:46:42.224Z,98.23
2022-10-21T02:49:11.527Z,97.85
2022-10-21T02:51:40.402Z,98.12
2022-10-21T02:54:08.542Z,98.28
2022-10-21T02:56:36.504Z,98.79
2022-10-21T02:59:04.458Z,98.66
2022-10-21T03:01:32.529Z,99.08
2022-10-21T03:04:00.673Z,99.24
2022-10-21T03:06:30.156Z,99.11
2022-10-21T03:08:58.224Z,99.02
2022-10-21T03:11:26.225Z,99.33
2022-10-21T03:13:54.166Z,99.01
2022-10-21T03:16:22.094Z,99.34
2022-10-21T03:18:50.122Z,99.47
2022-10-21T03:21:18.049Z,99.58
2022-10-21T03:23:47.304Z,99.61
2022-10-21T03:26:15.382Z,99.64
2022-10-21T03:28:43.315Z,99.61
2022-10-21T03:31:16.463Z,99.88
2022-10-21T03:33:44.426Z,100.00
2022-10-21T03:36:12.330Z,99.86
2022-10-21T03:38:40.173Z,99.98
2022-10-21T03:41:09.434Z,100.00
2022-10-21T03:43:37.534Z,99.87
2022-10-21T03:46:05.614Z,100.00
2022-10-21T03:48:33.551Z,100.00
2022-10-21T03:51:01.503Z,100.00
2022-10-21T03:53:42.851Z,100.00
2022-10-21T03:56:13.138Z,100.00
2022-10-21T03:58:41.420Z,100.00
2022-10-21T04:01:11.411Z,100.00
2022-10-21T04:03:39.402Z,100.00
2022-10-21T04:06:32.849Z,100.00
2022-10-21T04:09:01.065Z,100.00
2022-10-21T04:11:30.725Z,100.00
2022-10-21T04:13:58.698Z,100.00
2022-10-21T04:16:26.705Z,100.00
2022-10-21T04:18:54.720Z,100.00
2022-10-21T04:23:55.789Z,100.00
2022-10-21T04:26:23.669Z,100.00
2022-10-21T04:28:53.014Z,100.00
2022-10-21T04:31:20.882Z,100.00
2022-10-21T04:33:49.904Z,100.00
2022-10-21T04:36:18.004Z,100.00
2022-10-21T04:38:45.925Z,100.00
2022-10-21T04:41:14.067Z,100.00
2022-10-21T04:43:42.261Z,100.00
2022-10-21T04:46:14.154Z,100.00
2022-10-21T04:48:42.540Z,100.00
2022-10-21T04:51:10.561Z,100.00
2022-10-21T04:53:38.694Z,100.00
2022-10-21T04:56:07.359Z,100.00
2022-10-21T04:58:35.493Z,100.00
2022-10-21T05:01:03.944Z,100.00
2022-10-21T05:03:33.520Z,100.00
2022-10-21T05:06:01.727Z,100.00
2022-10-21T05:08:29.802Z,100.00
2022-10-21T05:10:58.416Z,100.00
2022-10-21T05:13:26.479Z,100.00
2022-10-21T05:15:54.509Z,100.00
2022-10-21T05:18:22.659Z,100.00
2022-10-21T05:20:52.925Z,100.00
2022-10-21T05:23:21.119Z,100.00
2022-10-21T05:25:50.615Z,100.00
2022-10-21T05:28:19.158Z,100.00
2022-10-21T05:30:47.387Z,100.00
2022-10-21T05:33:15.344Z,99.86
2022-10-21T05:35:43.333Z,100.00
2022-10-21T05:38:12.611Z,100.00
2022-10-21T05:40:40.896Z,100.00
2022-10-21T05:43:08.818Z,100.00
2022-10-21T05:45:36.802Z,100.00
2022-10-21T05:48:05.096Z,100.00
2022-10-21T05:50:33.159Z,100.00
2022-10-21T05:53:01.016Z,100.00
2022-10-21T05:55:30.275Z,100.00
2022-10-21T05:57:59.443Z,100.00
2022-10-21T06:00:27.981Z,100.00
2022-10-21T06:02:56.191Z,100.00
2022-10-21T06:05:24.129Z,100.00
2022-10-21T06:08:06.059Z,100.00
2022-10-21T06:10:39.104Z,100.00
2022-10-21T06:13:15.047Z,100.00
2022-10-21T06:16:00.186Z,100.00
2022-10-21T06:18:33.110Z,100.00
2022-10-21T06:21:07.794Z,100.00
2022-10-21T06:23:47.682Z,100.00
2022-10-21T06:26:30.969Z,100.00
2022-10-21T06:29:15.119Z,100.00
2022-10-21T06:31:58.697Z,100.00
2022-10-21T06:34:32.615Z,100.00
2022-10-21T06:37:06.975Z,100.00
2022-10-21T06:39:40.213Z,100.00
2022-10-21T06:42:28.575Z,100.00
2022-10-21T06:45:00.437Z,100.00
2022-10-21T06:47:38.878Z,100.00
2022-10-21T06:50:16.322Z,100.00
2022-10-21T06:52:45.564Z,100.00
2022-10-21T06:55:29.376Z,100.00
2022-10-21T06:57:59.594Z,100.00
2022-10-21T07:00:27.705Z,100.00
2022-10-21T07:02:55.952Z,100.00
2022-10-21T07:05:23.934Z,100.00
2022-10-21T07:07:52.523Z,100.00
2022-10-21T07:10:20.491Z,100.00
2022-10-21T07:12:48.587Z,100.00
2022-10-21T07:15:18.080Z,100.00
2022-10-21T07:17:46.128Z,100.00
2022-10-21T07:20:14.124Z,100.00
2022-10-21T07:22:42.065Z,100.00
2022-10-21T07:25:10.708Z,100.00
2022-10-21T07:27:39.805Z,100.00
2022-10-21T07:30:08.993Z,100.00
2022-10-21T07:32:38.258Z,100.00
2022-10-21T07:35:06.650Z,100.00
2022-10-21T07:37:34.633Z,100.00
2022-10-21T07:40:02.855Z,100.00
2022-10-21T07:42:30.998Z,100.00
2022-10-21T07:45:01.149Z,100.00
2022-10-21T07:47:29.361Z,100.00
2022-10-21T07:49:58.717Z,100.00
2022-10-21T07:52:27.576Z,100.00
2022-10-21T07:54:55.504Z,100.00
2022-10-21T07:57:23.428Z,100.00
2022-10-21T07:59:51.410Z,100.00
2022-10-21T08:02:19.521Z,100.00
2022-10-21T08:04:47.551Z,100.00
2022-10-21T08:07:17.170Z,100.00
2022-10-21T08:09:45.260Z,100.00
2022-10-21T08:12:15.882Z,100.00
2022-10-21T08:14:44.169Z,100.00
2022-10-21T08:17:12.354Z,100.00
2022-10-21T08:19:40.519Z,100.00
2022-10-21T08:22:08.810Z,100.00
2022-10-21T08:24:41.404Z,100.00
2022-10-21T08:27:10.559Z,100.00
2022-10-21T08:29:40.062Z,100.00
2022-10-21T08:32:08.352Z,100.00
2022-10-21T08:34:36.276Z,100.00
2022-10-21T08:37:04.503Z,100.00
2022-10-21T08:39:32.680Z,100.00
2022-10-21T08:42:08.871Z,100.00
2022-10-21T08:44:41.089Z,100.00
2022-10-21T08:47:14.548Z,100.00
2022-10-21T08:49:46.901Z,100.00
2022-10-21T08:52:17.329Z,100.00
2022-10-21T08:54:47.693Z,100.00
2022-10-21T08:57:17.393Z,98.21
2022-10-21T08:59:45.374Z,96.51
2022-10-21T09:02:23.004Z,94.54
2022-10-21T09:04:55.131Z,92.62
2022-10-21T09:07:28.733Z,91.81
2022-10-21T09:10:00.370Z,91.08
2022-10-21T09:12:34.150Z,91.67
2022-10-21T09:15:11.617Z,91.16
2022-10-21T09:17:55.660Z,91.93
2022-10-21T09:20:32.851Z,91.45
2022-10-21T09:23:05.882Z,91.75
2022-10-21T09:25:35.191Z,91.82
2022-10-21T09:28:11.033Z,90.49
2022-10-21T09:30:40.694Z,90.83
2022-10-21T09:33:12.927Z,89.70
2022-10-21T09:35:45.044Z,88.98
2022-10-21T09:38:16.555Z,88.42
2022-10-21T09:40:45.627Z,87.99
2022-10-21T09:43:17.778Z,87.61
2022-10-21T09:45:46.700Z,88.10
2022-10-21T09:48:25.629Z,88.10
2022-10-21T09:50:55.011Z,88.80
2022-10-21T09:53:26.536Z,88.45
2022-10-21T09:55:59.175Z,88.28
2022-10-21T09:58:30.161Z,88.41
2022-10-21T10:00:58.690Z,88.68
2022-10-21T10:03:30.905Z,89.00
2022-10-21T10:05:59.179Z,89.05
2022-10-21T10:08:36.262Z,89.69
2022-10-21T10:11:06.028Z,89.77
2022-10-21T10:13:36.223Z,90.23
2022-10-21T10:16:14.819Z,90.59
2022-10-21T10:18:43.317Z,91.02
2022-10-21T10:21:12.230Z,91.00
2022-10-21T10:23:44.425Z,90.57
2022-10-21T10:26:18.138Z,91.01
2022-10-21T10:28:51.934Z,90.73
2022-10-21T10:31:25.217Z,90.72
2022-10-21T10:33:58.811Z,91.43
2022-10-21T10:36:29.606Z,92.01
2022-10-21T10:38:59.264Z,92.20
2022-10-21T10:41:32.067Z,92.15
2022-10-21T10:44:02.539Z,92.66
2022-10-21T10:46:31.973Z,93.24
2022-10-21T10:49:04.484Z,93.51
2022-10-21T10:51:34.534Z,93.71
2022-10-21T10:54:04.154Z,93.78
2022-10-21T10:56:35.625Z,94.33
2022-10-21T10:59:12.163Z,94.60
2022-10-21T11:01:43.489Z,95.29
2022-10-21T11:04:17.771Z,95.26
2022-10-21T11:06:49.115Z,95.33
2022-10-21T11:09:18.585Z,95.51
2022-10-21T11:11:48.088Z,96.00
2022-10-21T11:14:21.937Z,96.49
2022-10-21T11:17:00.578Z,96.61
2022-10-21T11:19:36.596Z,96.66
2022-10-21T11:22:10.235Z,96.62
2022-10-21T11:24:55.355Z,96.92
2022-10-21T11:27:28.695Z,97.31
2022-10-21T11:30:03.654Z,97.24
2022-10-21T11:32:37.275Z,97.32
2022-10-21T11:35:13.778Z,97.44
2022-10-21T11:37:49.221Z,97.22
2022-10-21T11:40:20.904Z,97.30
2022-10-21T11:42:50.678Z,97.48
2022-10-21T11:45:31.681Z,97.68
2022-10-21T11:48:04.283Z,97.71
2022-10-21T11:50:37.176Z,97.60
2022-10-21T11:53:15.218Z,97.51
2022-10-21T11:55:48.695Z,97.45
2022-10-21T11:58:24.010Z,96.96
2022-10-21T12:00:59.781Z,95.83
2022-10-21T12:03:39.918Z,94.66
2022-10-21T12:06:15.503Z,93.83
2022-10-21T12:08:50.759Z,92.82
2022-10-21T12:11:23.155Z,92.51
2022-10-21T12:13:53.340Z,91.66
2022-10-21T12:16:25.463Z,91.59
2022-10-21T12:18:55.107Z,91.53
2022-10-21T12:21:25.048Z,91.87
2022-10-21T12:23:55.724Z,91.41
2022-10-21T12:26:25.563Z,88.87
2022-10-21T12:28:56.908Z,87.98
2022-10-21T12:31:30.643Z,85.93
2022-10-21T12:33:58.959Z,82.72
2022-10-21T12:36:40.648Z,83.16
2022-10-21T12:39:12.805Z,78.06
2022-10-21T12:41:42.041Z,73.49
2022-10-21T12:44:23.957Z,73.36
2022-10-21T12:46:54.834Z,70.89
2022-10-21T12:49:24.824Z,72.20
2022-10-21T12:51:55.453Z,71.95
2022-10-21T12:54:28.102Z,67.58
2022-10-21T12:57:02.018Z,59.47
2022-10-21T12:59:35.025Z,53.02
2022-10-21T13:02:18.895Z,50.11
2022-10-21T13:04:48.650Z,53.53
2022-10-21T13:07:30.754Z,59.95
2022-10-21T13:10:16.690Z,65.06
2022-10-21T13:12:47.497Z,66.37
2022-10-21T13:15:36.669Z,69.63
2022-10-21T13:18:06.299Z,70.34
2022-10-21T13:20:49.668Z,70.34
2022-10-21T13:23:32.308Z,69.75
2022-10-21T13:26:08.455Z,69.53
2022-10-21T13:28:36.879Z,69.20
2022-10-21T13:31:05.010Z,69.03
2022-10-21T13:33:35.593Z,70.07
2022-10-21T13:36:09.041Z,71.15
2022-10-21T13:38:39.224Z,71.63
2022-10-21T13:41:08.446Z,71.40
2022-10-21T13:43:39.368Z,71.46
2022-10-21T13:46:08.757Z,71.75
2022-10-21T13:48:40.587Z,71.70
2022-10-21T13:51:15.886Z,71.14
2022-10-21T13:53:45.817Z,70.94
2022-10-21T13:56:21.066Z,71.05
2022-10-21T13:58:49.723Z,71.75
2022-10-21T14:01:20.251Z,72.15
2022-10-21T14:03:50.264Z,71.90
2022-10-21T14:06:20.725Z,71.92
2022-10-21T14:08:49.324Z,70.90
2022-10-21T14:11:19.651Z,70.85
2022-10-21T14:13:49.167Z,70.54
2022-10-21T14:16:22.037Z,70.26
2022-10-21T14:18:52.163Z,68.32
2022-10-21T14:21:22.046Z,66.27
2022-10-21T14:23:50.870Z,64.98
2022-10-21T14:26:19.413Z,63.12
2022-10-21T14:28:48.579Z,62.70
2022-10-21T14:31:18.652Z,61.30
2022-10-21T14:33:47.544Z,61.89
2022-10-21T14:36:19.691Z,62.13
2022-10-21T14:38:56.267Z,64.27
2022-10-21T14:41:25.958Z,64.02
2022-10-21T14:43:55.025Z,64.99
2022-10-21T14:46:23.114Z,66.36
2022-10-21T14:48:53.153Z,67.37
2022-10-21T14:51:23.930Z,68.62
2022-10-21T14:53:54.819Z,70.70
2022-10-21T14:56:25.247Z,71.95
2022-10-21T14:58:55.444Z,73.29
2022-10-21T15:01:24.032Z,74.25
2022-10-21T15:03:53.033Z,74.81
2022-10-21T15:06:23.135Z,74.94
2022-10-21T15:09:02.522Z,75.37
2022-10-21T15:11:33.295Z,75.33
2022-10-21T15:14:06.907Z,74.83
2022-10-21T15:16:36.436Z,74.60
2022-10-21T15:19:08.389Z,74.59
2022-10-21T15:21:41.094Z,74.92
2022-10-21T15:24:17.887Z,74.75
2022-10-21T15:26:47.020Z,74.90
2022-10-21T15:29:19.776Z,75.55
2022-10-21T15:31:48.551Z,76.43
2022-10-21T15:34:17.458Z,76.95
2022-10-21T15:36:47.101Z,77.57
2022-10-21T15:39:15.273Z,78.26
2022-10-21T15:41:43.327Z,78.69
2022-10-21T15:44:19.132Z,78.03
2022-10-21T15:46:49.944Z,78.59
2022-10-21T15:49:21.748Z,78.93
2022-10-21T15:51:52.148Z,79.08
2022-10-21T15:54:21.249Z,79.49
2022-10-21T15:56:50.729Z,79.84
2022-10-21T15:59:19.592Z,80.18
2022-10-21T16:01:48.144Z,79.86
2022-10-21T16:04:16.683Z,80.27
2022-10-21T16:06:47.906Z,80.10
2022-10-21T16:09:20.510Z,79.99
2022-10-21T16:11:59.112Z,80.27
2022-10-21T16:14:29.507Z,80.60
2022-10-21T16:16:59.128Z,80.42
2022-10-21T16:19:27.264Z,79.92
2022-10-21T16:21:55.287Z,80.04
2022-10-21T16:24:24.689Z,79.90
2022-10-21T16:26:53.037Z,80.05
2022-10-21T16:29:22.050Z,80.46
2022-10-21T16:31:50.554Z,80.99
2022-10-21T16:34:18.598Z,81.66
2022-10-21T16:36:46.658Z,81.54
2022-10-21T16:39:16.271Z,81.31
2022-10-21T16:41:46.144Z,81.55
2022-10-21T16:44:14.678Z,82.25
2022-10-21T16:46:47.423Z,82.75
2022-10-21T16:49:16.887Z,83.40
2022-10-21T16:51:46.534Z,83.79
2022-10-21T16:54:14.894Z,84.46
2022-10-21T16:56:43.146Z,84.43
2022-10-21T16:59:12.476Z,84.45
2022-10-21T17:01:41.043Z,85.02
2022-10-21T17:04:09.320Z,84.95
2022-10-21T17:06:37.543Z,85.73
2022-10-21T17:09:06.071Z,86.34
2022-10-21T17:11:36.511Z,86.47
2022-10-21T17:14:06.264Z,86.56
2022-10-21T17:16:35.597Z,87.11
2022-10-21T17:19:04.899Z,87.39
2022-10-21T17:21:33.649Z,87.78
2022-10-21T17:24:02.296Z,88.18
2022-10-21T17:26:31.045Z,88.75
2022-10-21T17:28:59.175Z,89.44
2022-10-21T17:31:27.871Z,89.96
2022-10-21T17:33:58.170Z,90.21
2022-10-21T17:36:26.506Z,90.52
2022-10-21T17:38:54.557Z,90.79
2022-10-21T17:41:22.571Z,91.22
2022-10-21T17:43:50.519Z,91.48
2022-10-21T17:46:19.524Z,91.81
2022-10-21T17:48:49.992Z,92.34
2022-10-21T17:51:19.551Z,92.25
2022-10-21T17:53:49.078Z,92.64
2022-10-21T17:56:17.735Z,93.00
2022-10-21T17:58:46.103Z,93.07
2022-10-21T18:01:14.503Z,93.12
2022-10-21T18:03:42.666Z,93.17
2022-10-21T18:06:11.750Z,93.19
2022-10-21T18:08:41.432Z,93.12
2022-10-21T18:11:10.595Z,93.28
2022-10-21T18:13:38.872Z,92.99
2022-10-21T18:16:08.275Z,92.99
2022-10-21T18:18:36.780Z,93.20
2022-10-21T18:21:05.541Z,93.56
2022-10-21T18:23:34.042Z,93.93
2022-10-21T18:26:05.257Z,94.01
2022-10-21T18:28:34.258Z,94.19
2022-10-21T18:31:02.231Z,94.10
2022-10-21T18:33:30.680Z,94.19
2022-10-21T18:36:06.943Z,94.26
2022-10-21T18:38:35.028Z,94.38
2022-10-21T18:41:23.470Z,94.58
2022-10-21T18:43:52.371Z,94.72
2022-10-21T18:46:21.026Z,94.90
2022-10-21T18:48:49.208Z,95.12
2022-10-21T18:51:18.763Z,95.35
2022-10-21T18:53:49.944Z,95.53
2022-10-21T18:56:22.481Z,95.48
2022-10-21T18:58:50.903Z,95.56
2022-10-21T19:01:19.598Z,95.68
2022-10-21T19:03:47.779Z,95.76
2022-10-21T19:06:16.902Z,95.93
2022-10-21T19:08:45.116Z,96.01
2022-10-21T19:11:13.169Z,96.14
2022-10-21T19:13:42.580Z,96.33
2022-10-21T19:16:10.601Z,96.53
2022-10-21T19:18:38.981Z,96.70
2022-10-21T19:21:07.620Z,97.05
2022-10-21T19:23:35.599Z,97.34
2022-10-21T19:26:04.020Z,97.51
2022-10-21T19:28:32.761Z,97.77
2022-10-21T19:31:02.383Z,97.83
2022-10-21T19:33:30.853Z,97.84
2022-10-21T19:35:59.928Z,97.73
2022-10-21T19:38:43.114Z,97.75
2022-10-21T19:41:13.355Z,97.70
2022-10-21T19:43:41.372Z,97.81
2022-10-21T19:46:12.250Z,97.85
2022-10-21T19:48:40.299Z,97.98
2022-10-21T19:51:14.475Z,97.94
2022-10-21T19:53:45.033Z,97.90
2022-10-21T19:56:13.931Z,98.05
2022-10-21T19:58:43.569Z,98.15
2022-10-21T20:01:13.855Z,97.75
2022-10-21T20:03:43.011Z,97.78
2022-10-21T20:08:45.429Z,97.85
2022-10-21T20:11:14.322Z,98.02
2022-10-21T20:13:42.802Z,98.24
2022-10-21T20:16:16.199Z,98.00
2022-10-21T20:18:44.385Z,98.07
2022-10-21T20:21:12.787Z,97.80
2022-10-21T20:23:40.816Z,97.95
2022-10-21T20:26:09.334Z,98.22
2022-10-21T20:28:37.750Z,98.16
2022-10-21T20:31:06.888Z,98.05
2022-10-21T20:33:36.784Z,98.12
2022-10-21T20:36:05.402Z,98.09
2022-10-21T20:38:33.900Z,98.04
2022-10-21T20:41:03.283Z,98.03
2022-10-21T20:43:31.347Z,97.78
2022-10-21T20:46:00.902Z,97.81
2022-10-21T20:48:29.332Z,97.79
2022-10-21T20:51:05.484Z,97.54
2022-10-21T20:53:33.598Z,97.62
2022-10-21T20:56:03.460Z,97.54
2022-10-21T20:58:34.200Z,97.47
2022-10-21T21:01:07.201Z,97.50
2022-10-21T21:03:37.901Z,97.94
2022-10-21T21:06:08.104Z,97.75
2022-10-21T21:08:37.103Z,97.66
2022-10-21T21:11:05.799Z,97.65
2022-10-21T21:13:34.282Z,97.98
2022-10-21T21:16:06.108Z,98.03
2022-10-21T21:18:34.746Z,98.06
2022-10-21T21:21:03.792Z,98.64
2022-10-21T21:23:33.847Z,98.63
2022-10-21T21:26:05.514Z,98.45
2022-10-21T21:28:35.589Z,98.53
2022-10-21T21:31:04.922Z,98.46
2022-10-21T21:33:33.447Z,98.82
2022-10-21T21:36:01.599Z,98.74
2022-10-21T21:38:33.908Z,98.67
2022-10-21T21:41:05.619Z,98.50
2022-10-21T21:43:37.935Z,98.80
2022-10-21T21:46:08.527Z,98.68
2022-10-21T21:48:38.216Z,98.92
2022-10-21T21:51:10.246Z,98.91
2022-10-21T21:53:38.861Z,99.37
2022-10-21T21:56:09.623Z,99.22
2022-10-21T21:58:38.785Z,99.56
2022-10-21T22:01:11.132Z,99.53
2022-10-21T22:03:40.237Z,99.51
2022-10-21T22:06:08.959Z,99.66
2022-10-21T22:08:38.424Z,99.69
2022-10-21T22:11:09.529Z,99.37
2022-10-21T22:13:38.286Z,99.78
2022-10-21T22:16:06.960Z,99.66
2022-10-21T22:18:35.125Z,99.70
2022-10-21T22:21:06.124Z,99.41
2022-10-21T22:23:35.247Z,99.49
2022-10-21T22:26:03.421Z,99.14
2022-10-21T22:28:32.912Z,98.99
2022-10-21T22:31:02.081Z,99.08
2022-10-21T22:33:31.064Z,99.12
2022-10-21T22:35:59.833Z,99.30
2022-10-21T22:38:29.194Z,99.21
2022-10-21T22:40:58.203Z,99.21
2022-10-21T22:43:26.740Z,99.29
2022-10-21T22:46:04.961Z,99.59
2022-10-21T22:48:43.557Z,99.45
2022-10-21T22:51:11.463Z,99.32
2022-10-21T22:53:39.520Z,99.47
2022-10-21T22:56:07.674Z,99.62
2022-10-21T22:58:35.721Z,99.83
2022-10-21T23:01:08.829Z,99.49
2022-10-21T23:03:37.515Z,99.63
2022-10-21T23:06:10.041Z,99.49
2022-10-21T23:08:38.525Z,99.46
2022-10-21T23:11:06.559Z,99.43
2022-10-21T23:13:34.431Z,99.83
2022-10-21T23:16:02.611Z,99.37
2022-10-21T23:18:31.904Z,99.67
2022-10-21T23:20:59.999Z,99.73
2022-10-21T23:23:32.045Z,99.84
2022-10-21T23:26:00.036Z,99.79
2022-10-21T23:28:28.077Z,99.95
2022-10-21T23:30:56.254Z,99.86
2022-10-21T23:33:24.749Z,99.89
2022-10-21T23:35:54.349Z,99.66
2022-10-21T23:38:22.729Z,99.80
2022-10-21T23:40:50.807Z,100.00
2022-10-21T23:43:18.796Z,99.90
2022-10-21T23:45:48.579Z,99.81
2022-10-21T23:48:16.589Z,99.80
2022-10-21T23:50:44.820Z,99.76
2022-10-21T23:53:14.238Z,99.77
2022-10-21T23:55:42.373Z,100.00
2022-10-21T23:58:10.512Z,99.91
